Mayfield, Arkansas
Current Conditions -  °F | °C
As of 9:53 AM on Sunday 23 Nov 2014 (Local Time) from KFYV Reporting Station
Overcast Overcast  
Wind Chill: 58°   Ceiling: 900
Heat Index: 58°   Visibility: 10mi
Dew Point: 55°   Wind: 8mph
Humidity: 90%   Direction: 160°SSE
Pressure: 29.51"   Gusts: NA
Location:  35.9902°N, 94.083°W
Report Text: KFYV 231553Z 16007KT 10SM BKN009 OVC015 14/13 A2951 RMK AO2 CIG 007V013 SLP985 T01440128 $
Loading
Personal Weather Stations






























Interactive Weather Map New forecast layout! Learn more

10-Day Weather Forecast

Advertisements
Track Severe Weather on mobile